CJT9 weather

Leoville Airport
Leoville, Saskatchewan, Canada

Public forecast

Using degrees Celsius for public forecast. Weather courtesy of forecast.io.

METAR (pilot weather report)

Report is more than 2 hours old.

Closest report is Meadow Lake Airport, 44.3 nm (82.1 km) NW. Retrieved 2019/04/21 00:00 UTC (6 hours ago):

CYLJ 210000Z 26017G22KT 15SM BKN085TCU 12/M04 A2982 RMK TCU5 VIRGA LAST STFD OB/NXT211200UTC SLP118 DENSITY ALT 1800FT

TAF (pilot weather forecast)

Forecast is more than 12 hours old.

Closest forecast is North Battleford Airport, 56.0 nm (103.7 km) SSW. Retrieved 2019/04/20 00:42 UTC (1 day ago):

TAF CYQW 202341Z 2100/2112 30018G28KT P6SM SCT100 BECMG 2101/2103 30015KT FM210300 30012KT P6SM SKC BECMG 2105/2107 29008KT RMK FCST BASED ON AUTO OBS. NXT FCST BY 210600Z